Airfield :
LOGIN :

Register | Disclaimer

   EN    FR    IT 

 










Legend :    VFR   Marginal VFR   IFR   Intensive IFR   Very Intensive IFR
Visi :
Ceiling :
>= 8 km
>= 3000ft
5 to 8 km
1000 to 3000 ft
1500m to 5 km
500 to 1000 ft
800 to 1500m
200 to 500 ft
< 800m
< 200 ft
Symbols :   Thunderstorms  Fog  Heavy snow  Heavy precipitations  Wind > 20 kt
SIGMETs :     Misc.  Thunderstorms  Icing  Turbulence  Mountain Waves  Volcanic Ashes






- Airport Elevation : 327 ft
- IATA code : BHX


EGBB - Birmingham

CURRENT METAR :
  • 060050Z AUTO 31003KT 9999 NCD 02/M03 Q1035

EXPIRED METARs :
  • 060020Z AUTO VRB02KT 9999 NCD 02/M03 Q1035
  • 052350Z VRB03KT 9999 SCT040 02/M03 Q1035
  • 052320Z 11005KT 9999 OVC038 03/M02 Q1035
  • 052250Z 10005KT 9999 OVC038 04/M02 Q1035
  • 052220Z 09005KT 9999 OVC038 04/M03 Q1035

TAF TAF EGBB
Valid from the 06 at 00:00 until the 07 at 00:00 UTC


052253Z 0600/0624 08004KT 9999 SCT040
PROB30 0604/0609 8000
ATIS : +44 121 780 0910



MET'MAP, your aeronautical weather chart ! - Copyright ORBIFLY December 2007 - Disclaimer

ORBIFLY MET'MAP TEAM :

Programming & Development : Alexandra Zaïnal
Concept & original design : Baudouin d'Aumeries
Assistance for programming : Marc-Olivier Méhu
Technical & hardware support : Manuel Goepfert

Contact : metmap@orbifly.com




SOURCES & CREDITS :

   NOAA